createdAt,value
2019-02-17T00:00:11.626Z,102010.31
2019-02-17T00:02:40.082Z,102013.81
2019-02-17T00:05:08.803Z,102013.81
2019-02-17T00:07:37.186Z,102017.67
2019-02-17T00:10:06.301Z,102022.14
2019-02-17T00:12:34.758Z,102019.33
2019-02-17T00:15:03.349Z,102017.43
2019-02-17T00:17:31.922Z,102010.55
2019-02-17T00:20:00.327Z,102020.25
2019-02-17T00:22:28.765Z,102022.66
2019-02-17T00:24:57.476Z,102021.22
2019-02-17T00:27:25.879Z,102022.18
2019-02-17T00:29:54.306Z,102026.05
2019-02-17T00:32:22.803Z,102020.27
2019-02-17T00:34:51.293Z,102017.28
2019-02-17T00:37:19.966Z,102012.73
2019-02-17T00:39:48.486Z,102011.18
2019-02-17T00:42:16.870Z,102013.59
2019-02-17T00:44:45.326Z,102008.51
2019-02-17T00:47:13.786Z,102007.79
2019-02-17T00:49:42.303Z,102006.59
2019-02-17T00:52:10.667Z,102011.05
2019-02-17T00:54:39.226Z,102008.30
2019-02-17T00:57:07.659Z,102009.25
2019-02-17T00:59:36.280Z,102013.22
2019-02-17T01:02:04.807Z,102011.52
2019-02-17T01:04:33.199Z,102012.25
2019-02-17T01:07:01.650Z,102014.92
2019-02-17T01:09:30.310Z,102011.30
2019-02-17T01:11:59.151Z,102015.16
2019-02-17T01:14:27.878Z,102008.77
2019-02-17T01:16:56.552Z,102013.09
2019-02-17T01:19:25.104Z,102019.14
2019-02-17T01:21:53.508Z,102021.31
2019-02-17T01:24:21.874Z,102024.20
2019-02-17T01:26:50.376Z,102019.97
2019-02-17T01:29:20.785Z,102023.92
2019-02-17T01:31:48.924Z,102022.73
2019-02-17T01:34:17.368Z,102015.27
2019-02-17T01:36:45.770Z,102021.16
2019-02-17T01:39:14.223Z,102022.84
2019-02-17T01:41:42.619Z,102027.05
2019-02-17T01:44:11.066Z,102027.78
2019-02-17T01:46:39.840Z,102030.17
2019-02-17T01:49:08.244Z,102023.70
2019-02-17T01:51:36.653Z,102023.10
2019-02-17T01:54:05.445Z,102023.58
2019-02-17T01:56:33.855Z,102024.43
2019-02-17T01:59:02.560Z,102022.48
2019-02-17T02:01:31.013Z,102017.91
2019-02-17T02:03:59.473Z,102019.94
2019-02-17T02:06:27.945Z,102018.72
2019-02-17T02:08:56.411Z,102017.40
2019-02-17T02:11:25.114Z,102010.88
2019-02-17T02:13:53.593Z,102011.33
2019-02-17T02:16:21.975Z,102004.55
2019-02-17T02:18:50.714Z,102010.48
2019-02-17T02:21:19.128Z,102013.75
2019-02-17T02:23:47.580Z,102012.91
2019-02-17T02:26:16.048Z,102015.08
2019-02-17T02:28:44.484Z,102008.97
2019-02-17T02:31:12.954Z,102010.66
2019-02-17T02:33:41.338Z,102011.14
2019-02-17T02:36:09.692Z,102013.79
2019-02-17T02:38:38.118Z,102011.36
2019-02-17T02:41:06.855Z,102012.69
2019-02-17T02:43:35.300Z,102010.63
2019-02-17T02:46:03.770Z,102014.60
2019-02-17T02:48:32.305Z,102013.27
2019-02-17T02:51:00.743Z,102009.19
2019-02-17T02:53:29.190Z,102012.98
2019-02-17T02:55:57.638Z,102014.78
2019-02-17T02:58:26.083Z,102014.78
2019-02-17T03:00:54.646Z,102017.06
2019-02-17T03:03:23.018Z,102021.03
2019-02-17T03:05:53.085Z,102014.78
2019-02-17T03:08:21.441Z,102010.64
2019-02-17T03:10:50.038Z,102020.06
2019-02-17T03:13:18.566Z,102019.69
2019-02-17T03:15:46.943Z,102031.36
2019-02-17T03:18:15.364Z,102030.03
2019-02-17T03:20:44.102Z,102031.25
2019-02-17T03:23:12.453Z,102031.02
2019-02-17T03:25:40.926Z,102032.82
2019-02-17T03:28:09.364Z,102036.53
2019-02-17T03:30:37.848Z,102038.44
2019-02-17T03:33:07.616Z,102033.88
2019-02-17T03:35:35.975Z,102036.16
2019-02-17T03:38:04.703Z,102038.33
2019-02-17T03:40:33.231Z,102035.69
2019-02-17T03:43:01.935Z,102034.84
2019-02-17T03:45:30.339Z,102036.41
2019-02-17T03:47:58.778Z,102038.69
2019-02-17T03:50:27.145Z,102029.64
2019-02-17T03:52:55.573Z,102031.21
2019-02-17T03:55:23.932Z,102036.98
2019-02-17T03:57:52.402Z,102038.41
2019-02-17T04:00:21.172Z,102037.83
2019-02-17T04:02:49.831Z,102046.36
2019-02-17T04:05:18.317Z,102043.92
2019-02-17T04:07:46.697Z,102045.12
2019-02-17T04:10:15.169Z,102043.06
2019-02-17T04:12:43.619Z,102044.17
2019-02-17T04:15:12.154Z,102048.84
2019-02-17T04:17:40.620Z,102040.80
2019-02-17T04:20:09.163Z,102038.73
2019-02-17T04:22:37.671Z,102037.29
2019-02-17T04:25:06.543Z,102035.12
2019-02-17T04:27:35.042Z,102037.41
2019-02-17T04:30:03.858Z,102038.50
2019-02-17T04:32:32.244Z,102042.95
2019-02-17T04:35:00.744Z,102040.99
2019-02-17T04:37:29.125Z,102036.80
2019-02-17T04:39:57.533Z,102040.87
2019-02-17T04:42:25.971Z,102041.83
2019-02-17T04:44:54.350Z,102045.51
2019-02-17T04:47:22.804Z,102038.05
2019-02-17T04:49:51.256Z,102034.18
2019-02-17T04:52:19.732Z,102028.18
2019-02-17T04:54:48.420Z,102027.33
2019-02-17T04:57:16.839Z,102029.84
2019-02-17T04:59:45.295Z,102021.91
2019-02-17T05:02:13.773Z,102020.72
2019-02-17T05:04:42.149Z,102016.85
2019-02-17T05:07:10.591Z,102021.98
2019-02-17T05:09:39.057Z,102012.59
2019-02-17T05:12:07.511Z,102014.29
2019-02-17T05:14:35.973Z,102018.62
2019-02-17T05:17:04.765Z,102020.53
2019-02-17T05:19:33.169Z,102033.55
2019-02-17T05:22:01.540Z,102032.44
2019-02-17T05:24:29.945Z,102030.75
2019-02-17T05:26:58.388Z,102030.75
2019-02-17T05:29:27.132Z,102033.39
2019-02-17T05:31:55.524Z,102037.36
2019-02-17T05:34:23.883Z,102038.79
2019-02-17T05:36:52.639Z,102037.84
2019-02-17T05:39:21.019Z,102043.13
2019-02-17T05:41:49.664Z,102044.56
2019-02-17T05:44:18.050Z,102048.29
2019-02-17T05:46:46.504Z,102044.53
2019-02-17T05:49:14.948Z,102041.78
2019-02-17T05:51:43.338Z,102048.77
2019-02-17T05:54:11.709Z,102046.23
2019-02-17T05:56:40.132Z,102045.38
2019-02-17T05:59:08.513Z,102044.63
2019-02-17T06:01:37.184Z,102044.50
2019-02-17T06:04:05.642Z,102041.48
2019-02-17T06:06:34.005Z,102046.51
2019-02-17T06:09:02.391Z,102045.93
2019-02-17T06:11:30.797Z,102049.42
2019-02-17T06:13:59.344Z,102043.76
2019-02-17T06:16:27.798Z,102049.42
2019-02-17T06:18:56.176Z,102051.22
2019-02-17T06:21:24.633Z,102051.70
2019-02-17T06:23:53.380Z,102050.64
2019-02-17T06:26:21.776Z,102059.05
2019-02-17T06:28:50.386Z,102058.31
2019-02-17T06:31:18.803Z,102059.70
2019-02-17T06:33:47.173Z,102062.38
2019-02-17T06:36:15.557Z,102070.65
2019-02-17T06:38:43.972Z,102064.67
2019-02-17T06:41:12.327Z,102075.09
2019-02-17T06:43:40.730Z,102080.22
2019-02-17T06:46:10.754Z,102078.99
2019-02-17T06:48:39.142Z,102082.27
2019-02-17T06:51:07.529Z,102085.70
2019-02-17T06:53:36.163Z,102077.61
2019-02-17T06:56:06.175Z,102070.93
2019-02-17T06:58:34.665Z,102070.93
2019-02-17T07:01:03.365Z,102078.66
2019-02-17T07:03:31.829Z,102078.22
2019-02-17T07:06:13.682Z,102080.96
2019-02-17T07:08:42.056Z,102075.30
2019-02-17T07:11:10.756Z,102078.45
2019-02-17T07:13:39.279Z,102084.52
2019-02-17T07:16:07.915Z,102080.17
2019-02-17T07:18:36.372Z,102080.84
2019-02-17T07:21:04.815Z,102076.78
2019-02-17T07:23:33.344Z,102072.76
2019-02-17T07:26:01.729Z,102078.35
2019-02-17T07:28:30.227Z,102079.98
2019-02-17T07:30:58.886Z,102077.23
2019-02-17T07:33:27.308Z,102084.91
2019-02-17T07:35:56.066Z,102083.18
2019-02-17T07:38:24.452Z,102083.59
2019-02-17T07:40:52.960Z,102090.52
2019-02-17T07:43:21.450Z,102094.22
2019-02-17T07:45:49.897Z,102091.98
2019-02-17T07:48:18.293Z,102088.50
2019-02-17T07:50:46.836Z,102089.58
2019-02-17T07:53:15.225Z,102091.07
2019-02-17T07:55:43.607Z,102091.14
2019-02-17T07:58:12.025Z,102092.36
2019-02-17T08:00:40.519Z,102094.67
2019-02-17T08:03:08.956Z,102094.22
2019-02-17T08:05:37.789Z,102098.07
2019-02-17T08:08:06.319Z,102087.85
2019-02-17T08:10:35.306Z,102091.03
2019-02-17T08:13:03.711Z,102092.21
2019-02-17T08:15:32.106Z,102095.10
2019-02-17T08:18:00.565Z,102095.31
2019-02-17T08:20:28.958Z,102092.22
2019-02-17T08:22:57.348Z,102096.27
2019-02-17T08:25:25.794Z,102097.28
2019-02-17T08:27:54.411Z,102098.33
2019-02-17T08:30:23.124Z,102094.14
2019-02-17T08:32:51.626Z,102106.82
2019-02-17T08:35:20.034Z,102104.44
2019-02-17T08:37:48.527Z,102105.80
2019-02-17T08:40:17.020Z,102105.31
2019-02-17T08:42:45.467Z,102104.49
2019-02-17T08:45:13.927Z,102108.59
2019-02-17T08:47:42.300Z,102090.00
2019-02-17T08:50:11.773Z,102088.82
2019-02-17T08:52:40.492Z,102089.74
2019-02-17T08:55:10.566Z,102089.73
2019-02-17T08:57:38.968Z,102092.86
2019-02-17T09:00:12.642Z,102096.70
2019-02-17T09:02:41.059Z,102098.02
2019-02-17T09:05:09.557Z,102088.67
2019-02-17T09:07:38.237Z,102085.88
2019-02-17T09:10:09.632Z,102090.41
2019-02-17T09:12:38.082Z,102086.26
2019-02-17T09:15:09.375Z,102089.25
2019-02-17T09:17:38.078Z,102090.30
2019-02-17T09:20:08.203Z,102085.83
2019-02-17T09:22:36.651Z,102086.91
2019-02-17T09:25:07.632Z,102084.53
2019-02-17T09:27:36.252Z,102076.98
2019-02-17T09:30:07.294Z,102084.71
2019-02-17T09:32:35.686Z,102082.48
2019-02-17T09:35:04.607Z,102070.09
2019-02-17T09:37:33.112Z,102068.35
2019-02-17T09:40:01.492Z,102064.13
2019-02-17T09:42:29.972Z,102066.39
2019-02-17T09:44:58.422Z,102068.65
2019-02-17T09:47:27.168Z,102070.22
2019-02-17T09:49:55.819Z,102070.27
2019-02-17T09:52:24.545Z,102070.22
2019-02-17T09:54:53.047Z,102063.64
2019-02-17T09:57:21.590Z,102064.84
2019-02-17T09:59:50.214Z,102059.66
2019-02-17T10:02:26.205Z,102054.73
2019-02-17T10:04:48.789Z,102060.42
2019-02-17T10:07:17.194Z,102053.58
2019-02-17T10:09:45.657Z,102057.86
2019-02-17T10:12:14.133Z,102056.41
2019-02-17T10:14:42.507Z,102058.94
2019-02-17T10:17:10.888Z,102064.63
2019-02-17T10:19:39.416Z,102065.14
2019-02-17T10:22:07.875Z,102060.53
2019-02-17T10:24:36.329Z,102060.40
2019-02-17T10:27:05.059Z,102053.41
2019-02-17T10:29:33.440Z,102054.45
2019-02-17T10:32:02.181Z,102046.61
2019-02-17T10:34:30.737Z,102052.77
2019-02-17T10:36:59.178Z,102050.46
2019-02-17T10:39:27.812Z,102045.05
2019-02-17T10:41:56.247Z,102041.75
2019-02-17T10:44:24.678Z,102036.23
2019-02-17T10:46:53.214Z,102035.39
2019-02-17T10:49:21.656Z,102027.58
2019-02-17T10:51:50.066Z,102024.73
2019-02-17T10:54:18.495Z,102025.11
2019-02-17T10:56:47.229Z,102017.20
2019-02-17T10:59:15.614Z,102011.95
2019-02-17T11:01:44.354Z,102007.86
2019-02-17T11:04:12.806Z,102003.37
2019-02-17T11:06:41.277Z,101997.38
2019-02-17T11:09:20.068Z,101999.37
2019-02-17T11:11:48.644Z,101994.14
2019-02-17T11:14:17.161Z,101996.16
2019-02-17T11:16:45.642Z,101993.50
2019-02-17T11:19:14.103Z,101984.44
2019-02-17T11:21:42.604Z,101982.40
2019-02-17T11:24:11.134Z,101983.22
2019-02-17T11:26:39.525Z,101979.05
2019-02-17T11:29:08.058Z,101971.88
2019-02-17T11:31:36.600Z,101973.56
2019-02-17T11:34:05.476Z,101968.01
2019-02-17T11:36:33.935Z,101964.77
2019-02-17T11:39:02.399Z,101961.77
2019-02-17T11:41:30.832Z,101963.62
2019-02-17T11:43:59.682Z,101956.89
2019-02-17T11:46:28.241Z,101957.95
2019-02-17T11:48:56.622Z,101956.70
2019-02-17T11:51:25.045Z,101964.22
2019-02-17T11:53:53.498Z,101961.20
2019-02-17T11:56:21.902Z,101962.61
2019-02-17T11:58:50.358Z,101953.84
2019-02-17T12:01:18.748Z,101957.97
2019-02-17T12:03:47.199Z,101952.84
2019-02-17T12:06:15.941Z,101949.23
2019-02-17T12:08:48.459Z,101943.88
2019-02-17T12:11:17.095Z,101942.05
2019-02-17T12:13:45.603Z,101946.26
2019-02-17T12:16:13.982Z,101944.53
2019-02-17T12:18:42.402Z,101939.34
2019-02-17T12:21:27.324Z,101931.70
2019-02-17T12:24:11.107Z,101925.72
2019-02-17T12:26:44.233Z,101929.61
2019-02-17T12:29:29.021Z,101922.09
2019-02-17T12:31:57.918Z,101925.30
2019-02-17T12:34:26.339Z,101924.12
2019-02-17T12:36:54.866Z,101918.95
2019-02-17T12:39:23.269Z,101915.47
2019-02-17T12:41:51.630Z,101914.10
2019-02-17T12:44:20.043Z,101906.59
2019-02-17T12:46:48.498Z,101906.45
2019-02-17T12:49:16.907Z,101906.82
2019-02-17T12:51:45.631Z,101905.79
2019-02-17T12:54:14.101Z,101909.16
2019-02-17T12:56:42.534Z,101904.80
2019-02-17T12:59:10.918Z,101900.12
2019-02-17T13:01:39.308Z,101901.46
2019-02-17T13:04:07.763Z,101899.47
2019-02-17T13:06:36.241Z,101894.80
2019-02-17T13:09:06.303Z,101892.48
2019-02-17T13:11:34.823Z,101900.38
2019-02-17T13:14:03.267Z,101892.48
2019-02-17T13:16:31.686Z,101891.83
2019-02-17T13:19:00.140Z,101891.17
2019-02-17T13:21:28.856Z,101892.84
2019-02-17T13:23:57.309Z,101888.83
2019-02-17T13:26:25.795Z,101894.19
2019-02-17T13:28:54.684Z,101894.87
2019-02-17T13:31:23.214Z,101887.84
2019-02-17T13:33:51.675Z,101888.38
2019-02-17T13:36:20.359Z,101883.84
2019-02-17T13:38:48.761Z,101873.61
2019-02-17T13:41:17.276Z,101881.16
2019-02-17T13:43:46.054Z,101872.95
2019-02-17T13:46:14.685Z,101876.31
2019-02-17T13:48:43.151Z,101870.45
2019-02-17T13:51:11.805Z,101864.77
2019-02-17T13:53:40.195Z,101866.75
2019-02-17T13:56:08.735Z,101866.43
2019-02-17T13:58:37.119Z,101871.13
2019-02-17T14:01:05.648Z,101866.61
2019-02-17T14:03:34.104Z,101863.57
2019-02-17T14:06:03.997Z,101860.91
2019-02-17T14:08:32.429Z,101860.41
2019-02-17T14:11:01.194Z,101861.03
2019-02-17T14:13:29.587Z,101860.35
2019-02-17T14:15:57.974Z,101856.67
2019-02-17T14:18:26.658Z,101855.67
2019-02-17T14:20:55.114Z,101863.03
2019-02-17T14:23:23.532Z,101855.00
2019-02-17T14:25:51.909Z,101851.16
2019-02-17T14:28:20.297Z,101848.98
2019-02-17T14:30:48.761Z,101843.78
2019-02-17T14:33:17.297Z,101846.63
2019-02-17T14:35:45.725Z,101845.43
2019-02-17T14:38:14.356Z,101840.27
2019-02-17T14:40:42.743Z,101840.58
2019-02-17T14:43:11.261Z,101838.43
2019-02-17T14:45:39.872Z,101830.95
2019-02-17T14:48:08.580Z,101824.19
2019-02-17T14:50:37.006Z,101824.56
2019-02-17T14:53:05.474Z,101824.70
2019-02-17T14:55:34.055Z,101820.41
2019-02-17T14:58:05.311Z,101813.13
2019-02-17T15:00:32.616Z,101811.14
2019-02-17T15:03:01.054Z,101817.14
2019-02-17T15:05:29.515Z,101810.30
2019-02-17T15:07:58.001Z,101808.45
2019-02-17T15:10:26.459Z,101803.76
2019-02-17T15:12:54.874Z,101805.06
2019-02-17T15:15:23.293Z,101801.56
2019-02-17T15:17:52.000Z,101799.36
2019-02-17T15:20:24.953Z,101800.88
2019-02-17T15:22:53.419Z,101795.31
2019-02-17T15:25:21.782Z,101795.97
2019-02-17T15:27:50.188Z,101791.62
2019-02-17T15:30:18.623Z,101793.11
2019-02-17T15:32:47.113Z,101787.39
2019-02-17T15:35:15.570Z,101784.19
2019-02-17T15:37:44.039Z,101777.66
2019-02-17T15:40:13.569Z,101774.80
2019-02-17T15:42:43.282Z,101774.80
2019-02-17T15:45:12.815Z,101774.95
2019-02-17T15:47:41.285Z,101764.56
2019-02-17T15:50:13.788Z,101771.09
2019-02-17T15:52:42.312Z,101764.83
2019-02-17T15:55:13.130Z,101761.62
2019-02-17T15:57:41.659Z,101755.58
2019-02-17T16:00:18.227Z,101756.92
2019-02-17T16:02:46.921Z,101759.09
2019-02-17T16:05:15.459Z,101756.54
2019-02-17T16:07:44.191Z,101755.05
2019-02-17T16:10:13.790Z,101752.17
2019-02-17T16:12:42.278Z,101753.47
2019-02-17T16:15:14.111Z,101748.57
2019-02-17T16:17:42.653Z,101750.84
2019-02-17T16:20:12.986Z,101746.14
2019-02-17T16:22:41.463Z,101748.80
2019-02-17T16:25:10.944Z,101747.75
2019-02-17T16:27:39.472Z,101749.73
2019-02-17T16:30:13.070Z,101752.20
2019-02-17T16:32:41.727Z,101753.23
2019-02-17T16:35:10.200Z,101759.66
2019-02-17T16:37:38.629Z,101759.09
2019-02-17T16:40:16.058Z,101754.73
2019-02-17T16:42:44.498Z,101767.72
2019-02-17T16:45:15.011Z,101767.00
2019-02-17T16:47:46.499Z,101773.77
2019-02-17T16:50:18.054Z,101768.41
2019-02-17T16:52:46.545Z,101772.53
2019-02-17T16:55:15.026Z,101769.31
2019-02-17T16:57:43.861Z,101767.11
2019-02-17T17:00:23.938Z,101771.75
2019-02-17T17:02:56.220Z,101776.39
2019-02-17T17:05:27.102Z,101779.56
2019-02-17T17:07:55.578Z,101780.86
2019-02-17T17:10:24.792Z,101774.48
2019-02-17T17:12:53.270Z,101773.62
2019-02-17T17:15:21.843Z,101772.22
2019-02-17T17:17:50.319Z,101772.57
2019-02-17T17:20:21.009Z,101761.91
2019-02-17T17:22:50.259Z,101765.55
2019-02-17T17:25:18.825Z,101766.89
2019-02-17T17:27:47.452Z,101761.38
2019-02-17T17:30:17.122Z,101760.80
2019-02-17T17:32:45.712Z,101758.45
2019-02-17T17:35:14.343Z,101763.08
2019-02-17T17:37:43.138Z,101758.04
2019-02-17T17:40:13.759Z,101761.86
2019-02-17T17:42:42.264Z,101764.67
2019-02-17T17:45:14.084Z,101763.98
2019-02-17T17:47:42.601Z,101762.96
2019-02-17T17:50:13.033Z,101760.23
2019-02-17T17:52:41.487Z,101758.55
2019-02-17T17:55:11.190Z,101757.88
2019-02-17T17:57:39.708Z,101759.01
2019-02-17T18:00:17.580Z,101755.15
2019-02-17T18:02:46.262Z,101757.18
2019-02-17T18:05:14.867Z,101753.22
2019-02-17T18:07:43.405Z,101755.53
2019-02-17T18:10:18.727Z,101752.55
2019-02-17T18:12:47.559Z,101759.22
2019-02-17T18:15:19.953Z,101753.67
2019-02-17T18:17:54.355Z,101757.53
2019-02-17T18:20:18.788Z,101749.53
2019-02-17T18:22:47.259Z,101752.13
2019-02-17T18:25:16.013Z,101747.27
2019-02-17T18:27:44.427Z,101745.72
2019-02-17T18:30:20.136Z,101748.10
2019-02-17T18:32:48.744Z,101745.72
2019-02-17T18:35:20.328Z,101748.84
2019-02-17T18:37:47.417Z,101748.64
2019-02-17T18:40:19.667Z,101747.27
2019-02-17T18:42:48.129Z,101746.71
2019-02-17T18:45:16.965Z,101742.85
2019-02-17T18:47:45.670Z,101746.19
2019-02-17T18:50:14.990Z,101751.30
2019-02-17T18:52:43.843Z,101748.11
2019-02-17T18:55:13.348Z,101749.09
2019-02-17T18:57:49.565Z,101751.05
2019-02-17T19:00:20.309Z,101750.08
2019-02-17T19:02:48.840Z,101752.66
2019-02-17T19:05:17.267Z,101753.33
2019-02-17T19:07:46.020Z,101751.30
2019-02-17T19:10:15.326Z,101751.64
2019-02-17T19:12:43.762Z,101753.61
2019-02-17T19:15:14.085Z,101748.23
2019-02-17T19:17:42.728Z,101752.52
2019-02-17T19:20:17.281Z,101746.97
2019-02-17T19:22:45.738Z,101745.81
2019-02-17T19:25:14.217Z,101737.75
2019-02-17T19:27:42.731Z,101740.55
2019-02-17T19:30:15.268Z,101735.05
2019-02-17T19:32:43.657Z,101736.66
2019-02-17T19:35:14.207Z,101736.92
2019-02-17T19:37:42.725Z,101732.27
2019-02-17T19:40:14.996Z,101733.52
2019-02-17T19:42:43.431Z,101729.88
2019-02-17T19:45:15.184Z,101732.19
2019-02-17T19:47:43.724Z,101729.34
2019-02-17T19:50:13.539Z,101733.12
2019-02-17T19:52:42.118Z,101731.88
2019-02-17T19:55:12.678Z,101732.51
2019-02-17T19:57:41.403Z,101733.27
2019-02-17T20:00:15.686Z,101730.78
2019-02-17T20:02:45.838Z,101732.88
2019-02-17T20:05:21.736Z,101731.00
2019-02-17T20:07:52.750Z,101735.98
2019-02-17T20:10:20.660Z,101734.78
2019-02-17T20:12:50.049Z,101735.77
2019-02-17T20:15:18.626Z,101728.40
2019-02-17T20:17:47.026Z,101729.90
2019-02-17T20:20:15.416Z,101728.70
2019-02-17T20:22:43.801Z,101733.67
2019-02-17T20:25:12.363Z,101728.35
2019-02-17T20:27:40.715Z,101723.66
2019-02-17T20:30:13.886Z,101724.28
2019-02-17T20:32:42.438Z,101719.61
2019-02-17T20:35:11.094Z,101727.03
2019-02-17T20:37:39.825Z,101724.85
2019-02-17T20:40:11.407Z,101722.14
2019-02-17T20:42:39.956Z,101722.77
2019-02-17T20:45:10.271Z,101728.09
2019-02-17T20:47:38.641Z,101720.23
2019-02-17T20:50:14.567Z,101725.02
2019-02-17T20:52:43.049Z,101717.30
2019-02-17T20:55:12.400Z,101716.60
2019-02-17T20:57:40.922Z,101720.27
2019-02-17T21:00:22.840Z,101714.86
2019-02-17T21:02:51.534Z,101718.98
2019-02-17T21:05:20.107Z,101716.81
2019-02-17T21:07:48.887Z,101718.44
2019-02-17T21:10:17.392Z,101716.54
2019-02-17T21:12:45.882Z,101720.75
2019-02-17T21:15:16.568Z,101714.05
2019-02-17T21:17:45.064Z,101714.66
2019-02-17T21:20:13.991Z,101709.97
2019-02-17T21:22:42.445Z,101708.42
2019-02-17T21:25:14.634Z,101719.52
2019-02-17T21:27:43.036Z,101715.81
2019-02-17T21:30:18.641Z,101717.77
2019-02-17T21:32:47.578Z,101722.38
2019-02-17T21:35:16.885Z,101722.67
2019-02-17T21:37:45.356Z,101719.44
2019-02-17T21:40:14.529Z,101713.92
2019-02-17T21:42:43.085Z,101712.24
2019-02-17T21:45:13.818Z,101714.55
2019-02-17T21:47:42.172Z,101712.86
2019-02-17T21:50:12.591Z,101714.33
2019-02-17T21:52:42.094Z,101712.16
2019-02-17T21:55:12.092Z,101716.56
2019-02-17T21:57:41.023Z,101710.54
2019-02-17T22:00:21.685Z,101713.98
2019-02-17T22:02:50.140Z,101715.66
2019-02-17T22:05:19.064Z,101711.23
2019-02-17T22:07:47.774Z,101712.69
2019-02-17T22:10:19.808Z,101709.48
2019-02-17T22:12:50.893Z,101706.23
2019-02-17T22:15:20.939Z,101709.06
2019-02-17T22:17:49.505Z,101700.02
2019-02-17T22:20:17.940Z,101703.94
2019-02-17T22:22:46.418Z,101696.94
2019-02-17T22:25:15.347Z,101692.60
2019-02-17T22:27:43.793Z,101689.95
2019-02-17T22:30:15.838Z,101684.63
2019-02-17T22:32:44.357Z,101688.62
2019-02-17T22:35:14.084Z,101683.44
2019-02-17T22:37:42.569Z,101685.96
2019-02-17T22:40:12.747Z,101685.96
2019-02-17T22:42:41.326Z,101686.22
2019-02-17T22:45:10.975Z,101686.09
2019-02-17T22:47:39.476Z,101681.75
2019-02-17T22:50:14.983Z,101682.88
2019-02-17T22:52:44.593Z,101674.56
2019-02-17T22:55:14.083Z,101672.16
2019-02-17T22:57:42.607Z,101669.98
2019-02-17T23:00:20.031Z,101667.95
2019-02-17T23:02:48.467Z,101671.73
2019-02-17T23:05:17.188Z,101670.67
2019-02-17T23:07:45.569Z,101674.78
2019-02-17T23:10:14.107Z,101671.29
2019-02-17T23:12:42.845Z,101669.95
2019-02-17T23:15:11.528Z,101671.94
2019-02-17T23:17:40.230Z,101673.16
2019-02-17T23:20:08.826Z,101668.82
2019-02-17T23:22:37.531Z,101674.42
2019-02-17T23:25:08.447Z,101671.95
2019-02-17T23:27:36.893Z,101669.07
2019-02-17T23:30:07.414Z,101672.34
2019-02-17T23:32:36.139Z,101667.87
2019-02-17T23:35:05.223Z,101664.37
2019-02-17T23:37:33.668Z,101663.89
2019-02-17T23:40:02.126Z,101660.55
2019-02-17T23:42:30.846Z,101658.73
2019-02-17T23:44:59.615Z,101657.41
2019-02-17T23:47:28.223Z,101656.34
2019-02-17T23:49:56.625Z,101655.14
2019-02-17T23:52:25.245Z,101658.09
2019-02-17T23:54:53.917Z,101660.15
2019-02-17T23:57:22.371Z,101656.88
2019-02-17T23:59:51.066Z,101656.40
